Time;durP1;ratioP1;P1;durP2;ratioP2;P2;SDS_P1;SDS_P2;PMS_P1;PMS_P2;Temp;Humidity;BMP_temperature;BMP_pressure;BME280_temperature;BME280_humidity;BME280_pressure;Samples;Min_cycle;Max_cycle;Signal;HPM_P1;HPM_P2
2021/12/24 00:00:50;;;;;;;6.33;3.17;;;26.20;99.90;;;;;;4992448;28;20175;-70
2021/12/24 00:03:18;;;;;;;6.63;3.87;;;26.50;99.90;;;;;;5010155;28;20229;-69
2021/12/24 00:05:46;;;;;;;5.93;3.67;;;26.40;99.90;;;;;;5000222;28;20246;-69
2021/12/24 00:08:14;;;;;;;8.63;3.87;;;26.20;99.90;;;;;;4992246;28;20225;-70
2021/12/24 00:10:46;;;;;;;5.17;3.50;;;26.20;99.90;;;;;;4992264;28;20214;-69
2021/12/24 00:13:16;;;;;;;5.63;3.50;;;26.00;99.90;;;;;;4992331;28;20213;-69
2021/12/24 00:18:35;;;;;;;9.20;3.23;;;25.70;99.90;;;;;;5011579;28;20182;-70
2021/12/24 00:22:07;;;;;;;6.23;3.50;;;25.80;99.90;;;;;;5011985;28;20182;-68
2021/12/24 00:37:31;;;;;;;8.00;5.33;;;26.30;99.90;;;;;;4995807;28;20650;-71
2021/12/24 00:40:11;;;;;;;8.17;4.90;;;26.30;99.90;;;;;;4995662;28;20588;-71
2021/12/24 00:42:43;;;;;;;11.53;6.63;;;26.00;99.90;;;;;;5005028;28;20181;-69
2021/12/24 00:45:13;;;;;;;8.83;7.07;;;26.30;99.90;;;;;;5011661;28;20226;-69
2021/12/24 00:47:40;;;;;;;9.93;7.00;;;26.30;99.90;;;;;;4997067;28;20203;-68
2021/12/24 00:50:13;;;;;;;12.60;7.00;;;25.80;99.90;;;;;;5000959;28;20182;-68
2021/12/24 00:52:48;;;;;;;7.33;5.73;;;26.20;99.90;;;;;;4999876;28;20178;-69
2021/12/24 00:55:21;;;;;;;10.60;6.23;;;26.00;99.90;;;;;;4998497;28;20181;-69
2021/12/24 00:57:52;;;;;;;8.20;5.23;;;26.10;99.90;;;;;;5015066;28;20174;-69
2021/12/24 01:00:27;;;;;;;8.40;5.67;;;26.10;99.90;;;;;;5014866;28;20698;-69
2021/12/24 01:02:57;;;;;;;9.87;5.10;;;26.30;99.90;;;;;;5014846;28;20177;-70
2021/12/24 01:05:27;;;;;;;6.63;4.27;;;26.40;99.90;;;;;;5014792;28;20260;-69
2021/12/24 01:07:55;;;;;;;6.50;3.57;;;26.30;99.90;;;;;;4990132;28;20182;-69
2021/12/24 01:10:30;;;;;;;6.27;4.17;;;26.30;99.90;;;;;;4996482;28;20186;-69
2021/12/24 01:12:57;;;;;;;4.80;3.93;;;26.40;99.90;;;;;;4995146;28;20643;-69
2021/12/24 01:15:28;;;;;;;7.47;4.07;;;26.60;99.90;;;;;;4995096;28;20186;-68
2021/12/24 01:18:05;;;;;;;8.03;3.77;;;26.80;99.90;;;;;;4999149;28;20526;-69
2021/12/24 01:44:34;;;;;;;7.00;2.53;;;27.50;99.90;;;;;;5007809;28;20271;-70
2021/12/24 01:47:05;;;;;;;4.93;2.20;;;27.30;99.90;;;;;;5014040;28;20174;-69
2021/12/24 01:49:33;;;;;;;4.20;1.80;;;26.90;99.90;;;;;;5007021;28;20217;-69
2021/12/24 01:52:03;;;;;;;5.93;2.43;;;26.80;99.90;;;;;;5010929;28;20184;-71
2021/12/24 01:54:31;;;;;;;5.33;1.93;;;26.70;99.90;;;;;;5003351;28;20197;-72
2021/12/24 01:56:58;;;;;;;3.97;1.67;;;26.70;99.90;;;;;;5006685;28;20201;-68
2021/12/24 01:59:26;;;;;;;7.07;2.30;;;27.20;99.90;;;;;;5012647;28;20264;-68
2021/12/24 02:01:54;;;;;;;5.03;2.40;;;27.40;99.90;;;;;;5012956;28;20594;-70
2021/12/24 02:04:22;;;;;;;4.70;1.70;;;28.30;99.90;;;;;;5013019;28;20252;-70
2021/12/24 02:06:50;;;;;;;9.40;1.97;;;28.70;99.90;;;;;;5013624;28;20178;-70
2021/12/24 02:09:18;;;;;;;5.70;1.83;;;27.80;99.90;;;;;;5012209;28;20184;-70
2021/12/24 02:11:46;;;;;;;5.03;1.60;;;27.30;99.90;;;;;;4995806;28;20187;-70
2021/12/24 02:14:18;;;;;;;5.40;1.93;;;27.20;99.90;;;;;;5008439;28;20228;-70
2021/12/24 02:30:19;;;;;;;6.80;2.10;;;28.70;99.90;;;;;;5014213;28;20299;-71
2021/12/24 02:32:47;;;;;;;4.33;2.40;;;28.60;99.90;;;;;;5013216;28;20842;-70
2021/12/24 02:35:14;;;;;;;9.87;2.70;;;29.00;99.90;;;;;;5012320;28;20166;-71
2021/12/24 02:37:43;;;;;;;6.03;2.27;;;28.40;99.90;;;;;;4995024;28;20224;-71
2021/12/24 02:40:11;;;;;;;4.67;2.50;;;28.60;99.90;;;;;;5012552;28;20207;-71
2021/12/24 02:42:39;;;;;;;5.27;2.27;;;29.20;99.90;;;;;;4994805;28;20581;-71
2021/12/24 02:45:07;;;;;;;5.30;1.90;;;29.90;99.90;;;;;;5012329;28;20264;-71
2021/12/24 02:55:39;;;;;;;5.17;2.10;;;29.20;99.90;;;;;;5014433;28;20267;-71
2021/12/24 02:58:06;;;;;;;4.73;2.30;;;29.60;99.90;;;;;;5014095;28;20174;-71
2021/12/24 03:00:34;;;;;;;8.40;2.43;;;29.90;99.90;;;;;;4996385;28;20587;-71
2021/12/24 03:03:02;;;;;;;8.23;2.50;;;30.40;99.90;;;;;;5014061;28;20178;-71
2021/12/24 03:05:30;;;;;;;5.60;2.00;;;30.50;99.90;;;;;;5013930;28;20276;-71
2021/12/24 03:07:57;;;;;;;3.43;2.10;;;30.40;99.90;;;;;;5013695;28;20629;-71
2021/12/24 03:10:26;;;;;;;3.70;1.87;;;30.10;99.90;;;;;;5013542;28;20178;-71
2021/12/24 03:12:54;;;;;;;4.17;2.37;;;29.30;99.90;;;;;;5013667;28;20257;-71
2021/12/24 03:15:24;;;;;;;4.23;2.30;;;28.90;99.90;;;;;;5012465;28;20204;-72
2021/12/24 03:17:56;;;;;;;3.97;1.80;;;28.90;99.90;;;;;;5013377;28;20268;-73
2021/12/24 03:20:26;;;;;;;4.67;2.07;;;29.60;99.90;;;;;;5013722;28;20217;-71
2021/12/24 03:23:08;;;;;;;6.00;2.30;;;30.20;99.90;;;;;;5013334;28;20174;-71
2021/12/24 03:25:36;;;;;;;5.70;2.53;;;29.90;99.90;;;;;;5013563;28;20555;-71
2021/12/24 03:28:05;;;;;;;4.17;2.07;;;30.50;99.90;;;;;;5013477;28;20185;-72
2021/12/24 03:30:33;;;;;;;5.50;2.00;;;30.90;99.90;;;;;;5012992;28;20244;-71
2021/12/24 03:33:01;;;;;;;4.70;2.30;;;30.40;99.90;;;;;;5013282;28;20170;-71
2021/12/24 03:35:28;;;;;;;7.47;2.73;;;30.50;99.90;;;;;;5013470;28;20176;-71
2021/12/24 03:37:56;;;;;;;3.97;2.23;;;30.60;99.90;;;;;;5013338;28;20174;-72
2021/12/24 03:40:24;;;;;;;3.73;1.90;;;30.50;99.90;;;;;;5013884;28;20170;-71
2021/12/24 03:42:51;;;;;;;7.53;2.27;;;30.60;99.90;;;;;;5013226;28;20518;-72
2021/12/24 03:45:28;;;;;;;6.17;2.33;;;30.90;99.90;;;;;;5013023;28;20225;-71
2021/12/24 03:48:00;;;;;;;4.37;2.20;;;31.00;99.90;;;;;;5013150;28;20165;-72
2021/12/24 03:50:45;;;;;;;8.67;2.40;;;30.30;99.90;;;;;;5013095;28;20316;-72
2021/12/24 03:55:58;;;;;;;4.17;2.17;;;30.80;99.90;;;;;;5013426;28;20185;-72
2021/12/24 03:58:26;;;;;;;6.80;2.53;;;31.00;99.90;;;;;;5013099;28;20185;-71
2021/12/24 04:00:54;;;;;;;6.47;2.50;;;30.50;99.90;;;;;;5013155;28;20266;-71
2021/12/24 04:03:22;;;;;;;5.60;2.30;;;30.80;99.90;;;;;;5014634;28;20173;-71
2021/12/24 04:05:50;;;;;;;5.33;2.17;;;31.10;99.90;;;;;;5017002;28;20287;-72
2021/12/24 04:08:18;;;;;;;4.37;1.67;;;30.90;99.90;;;;;;5017073;28;20181;-72
2021/12/24 04:10:45;;;;;;;6.07;2.30;;;31.20;99.90;;;;;;5016717;28;20174;-71
2021/12/24 04:13:14;;;;;;;6.07;2.42;;;31.30;99.90;;;;;;5015688;28;20182;-72
2021/12/24 04:15:42;;;;;;;5.83;2.43;;;31.90;99.90;;;;;;4999210;28;20193;-71
2021/12/24 04:18:18;;;;;;;5.65;2.55;;;32.40;99.90;;;;;;5017053;28;20184;-71
2021/12/24 04:26:17;;;;;;;7.43;2.60;;;31.30;99.90;;;;;;5017518;28;20255;-71
2021/12/24 04:28:44;;;;;;;4.77;2.17;;;31.20;99.90;;;;;;5016601;28;20178;-72
2021/12/24 04:31:13;;;;;;;4.70;2.28;;;32.00;99.90;;;;;;5016342;28;20229;-72
2021/12/24 04:33:46;;;;;;;3.93;1.97;;;31.60;99.90;;;;;;5016547;28;20181;-71
2021/12/24 05:03:28;;;;;;;5.97;2.40;;;29.00;99.90;;;;;;5016290;28;20256;-71
2021/12/24 05:06:16;;;;;;;3.50;1.90;;;28.80;99.90;;;;;;4998344;28;20308;-71
2021/12/24 05:08:53;;;;;;;5.37;2.30;;;28.90;99.90;;;;;;5015798;28;20639;-71
2021/12/24 05:11:23;;;;;;;5.40;1.90;;;28.90;99.90;;;;;;5015642;28;20197;-71
2021/12/24 05:13:53;;;;;;;4.27;2.03;;;29.00;99.90;;;;;;5015726;28;20719;-71
2021/12/24 05:16:27;;;;;;;7.20;2.33;;;28.50;99.90;;;;;;5015839;28;20268;-71
2021/12/24 05:21:44;;;;;;;5.13;2.20;;;28.10;99.90;;;;;;5015669;28;20193;-71
2021/12/24 05:24:14;;;;;;;9.33;2.13;;;27.90;99.90;;;;;;5015684;28;20308;-71
2021/12/24 05:26:45;;;;;;;5.90;2.63;;;27.70;99.90;;;;;;5015786;28;20189;-71
2021/12/24 05:29:15;;;;;;;8.77;2.30;;;27.90;99.90;;;;;;5015511;28;20182;-71
2021/12/24 05:31:43;;;;;;;4.90;2.43;;;28.00;99.90;;;;;;5015665;28;20182;-71
2021/12/24 05:34:14;;;;;;;5.57;2.37;;;28.60;99.90;;;;;;5015398;28;20523;-71
2021/12/24 05:36:42;;;;;;;11.33;2.80;;;29.20;99.90;;;;;;5015473;28;20181;-71
2021/12/24 05:39:14;;;;;;;7.90;2.50;;;28.80;99.90;;;;;;5015442;28;20276;-71
2021/12/24 05:41:42;;;;;;;6.73;1.97;;;29.30;99.90;;;;;;5015280;28;20182;-71
2021/12/24 05:44:14;;;;;;;7.27;2.10;;;29.40;99.90;;;;;;5015174;28;20209;-71
2021/12/24 05:46:44;;;;;;;7.80;2.33;;;29.20;99.90;;;;;;4997883;28;20360;-71
2021/12/24 05:49:12;;;;;;;7.57;2.20;;;29.50;99.90;;;;;;5015379;28;20189;-70
2021/12/24 05:51:40;;;;;;;5.63;2.00;;;29.60;99.90;;;;;;5013905;28;20190;-72
2021/12/24 05:54:08;;;;;;;5.97;2.50;;;29.90;99.90;;;;;;5015252;28;20261;-71
2021/12/24 05:56:36;;;;;;;7.13;2.27;;;30.00;99.90;;;;;;5015004;28;20185;-72
2021/12/24 05:59:05;;;;;;;4.17;1.57;;;29.80;99.90;;;;;;5015163;28;20643;-71
2021/12/24 06:01:33;;;;;;;6.07;2.20;;;30.20;99.90;;;;;;5014878;28;20170;-71
2021/12/24 06:04:01;;;;;;;8.20;2.30;;;29.40;99.90;;;;;;4997206;28;20565;-71
2021/12/24 06:06:29;;;;;;;6.70;2.10;;;29.10;99.90;;;;;;5015065;28;20240;-71
2021/12/24 06:08:57;;;;;;;5.17;1.80;;;28.30;99.90;;;;;;5015086;28;21234;-71
2021/12/24 06:11:24;;;;;;;9.13;2.10;;;28.50;99.90;;;;;;5014738;28;20177;-72
2021/12/24 06:13:55;;;;;;;7.30;2.40;;;28.50;99.90;;;;;;5014575;28;20185;-72
2021/12/24 06:16:23;;;;;;;9.27;2.17;;;28.50;99.90;;;;;;5014647;28;20200;-71
2021/12/24 06:18:51;;;;;;;4.20;2.00;;;28.00;99.90;;;;;;5014739;28;20181;-71
2021/12/24 06:21:20;;;;;;;5.77;2.00;;;28.00;99.90;;;;;;5014696;28;20669;-71
2021/12/24 06:23:48;;;;;;;8.33;2.73;;;28.10;99.90;;;;;;5014441;28;20182;-71
2021/12/24 06:26:16;;;;;;;7.50;2.10;;;28.60;99.90;;;;;;5014115;28;20312;-70
2021/12/24 06:28:44;;;;;;;6.23;2.57;;;28.80;99.90;;;;;;5014411;28;20174;-71
2021/12/24 06:31:12;;;;;;;7.03;2.57;;;29.10;99.90;;;;;;5012832;28;20295;-71
2021/12/24 06:33:39;;;;;;;6.67;2.20;;;28.90;99.90;;;;;;5014267;28;20178;-72
2021/12/24 06:36:07;;;;;;;9.40;2.53;;;28.40;99.90;;;;;;5013291;28;20189;-71
2021/12/24 06:38:35;;;;;;;14.10;2.43;;;28.40;99.90;;;;;;5014360;28;20188;-72
2021/12/24 06:41:03;;;;;;;8.77;2.20;;;28.60;99.90;;;;;;5014448;28;20175;-71
2021/12/24 06:43:33;;;;;;;6.67;2.43;;;28.60;99.90;;;;;;5014268;28;20552;-71
2021/12/24 06:46:00;;;;;;;9.40;2.13;;;28.80;99.90;;;;;;5014253;28;20224;-71
2021/12/24 06:48:28;;;;;;;8.03;2.47;;;28.40;99.90;;;;;;5013975;28;20174;-71
2021/12/24 06:50:56;;;;;;;6.33;1.97;;;28.10;99.90;;;;;;5013986;28;20185;-72
2021/12/24 06:53:23;;;;;;;9.17;2.73;;;28.10;99.90;;;;;;5014043;28;20509;-71
2021/12/24 06:55:51;;;;;;;6.70;2.20;;;27.80;99.90;;;;;;5014114;28;20178;-71
2021/12/24 06:58:19;;;;;;;8.17;2.50;;;27.90;99.90;;;;;;5014177;28;20174;-71
2021/12/24 07:00:47;;;;;;;8.00;2.30;;;27.60;99.90;;;;;;5013999;28;20177;-71
2021/12/24 07:03:14;;;;;;;7.20;2.40;;;27.10;99.90;;;;;;5013832;28;20205;-71
2021/12/24 07:05:42;;;;;;;7.77;2.70;;;27.20;99.90;;;;;;5013784;28;20240;-71
2021/12/24 07:08:10;;;;;;;11.50;2.47;;;27.30;99.90;;;;;;5013825;28;20177;-72
2021/12/24 07:10:38;;;;;;;6.73;2.20;;;27.50;99.90;;;;;;5013820;28;20185;-72
2021/12/24 07:13:05;;;;;;;7.83;2.83;;;27.30;99.90;;;;;;5013676;28;20193;-72
2021/12/24 07:15:33;;;;;;;10.80;2.90;;;27.10;99.90;;;;;;5013851;28;20218;-72
2021/12/24 07:18:01;;;;;;;10.73;2.97;;;26.90;99.90;;;;;;5013706;28;20231;-71
2021/12/24 07:20:29;;;;;;;10.17;2.73;;;26.80;99.90;;;;;;5013602;28;20177;-72
2021/12/24 07:22:57;;;;;;;11.60;3.10;;;27.10;99.90;;;;;;5013404;28;20217;-72
2021/12/24 07:25:24;;;;;;;6.37;2.20;;;27.40;99.90;;;;;;5012972;28;20224;-71
2021/12/24 07:27:55;;;;;;;8.07;2.40;;;27.40;99.90;;;;;;5013449;28;20173;-71
2021/12/24 07:30:22;;;;;;;8.80;2.90;;;27.10;99.90;;;;;;5013351;28;20664;-70
2021/12/24 07:32:50;;;;;;;9.43;2.57;;;26.90;99.90;;;;;;5013917;28;20216;-71
2021/12/24 07:35:18;;;;;;;11.30;2.50;;;26.90;99.90;;;;;;5014054;28;20185;-71
2021/12/24 07:37:46;;;;;;;13.13;2.90;;;26.60;99.90;;;;;;5012931;28;20185;-72
2021/12/24 07:40:17;;;;;;;9.27;2.63;;;26.60;99.90;;;;;;5013590;28;20178;-71
2021/12/24 07:42:48;;;;;;;8.50;2.77;;;26.40;99.90;;;;;;5013397;28;20176;-71
2021/12/24 07:45:18;;;;;;;11.07;3.47;;;26.30;99.90;;;;;;5013234;28;20717;-71
2021/12/24 07:47:55;;;;;;;13.17;3.20;;;26.10;99.90;;;;;;5013450;28;20623;-72
2021/12/24 07:52:57;;;;;;;7.93;2.93;;;26.00;99.90;;;;;;5013429;28;20182;-71
2021/12/24 07:55:24;;;;;;;10.13;3.23;;;25.70;99.90;;;;;;5013271;28;20178;-72
2021/12/24 07:57:53;;;;;;;8.43;3.17;;;25.70;99.90;;;;;;5013146;28;20174;-71
2021/12/24 08:00:25;;;;;;;9.03;3.30;;;26.00;99.90;;;;;;5012067;28;20648;-72
2021/12/24 08:02:57;;;;;;;12.03;3.40;;;26.20;99.90;;;;;;5013000;28;20185;-71
2021/12/24 08:05:25;;;;;;;11.17;2.53;;;26.30;99.90;;;;;;5013186;28;20300;-71
2021/12/24 08:07:55;;;;;;;11.90;2.90;;;26.70;99.90;;;;;;5013055;28;20638;-72
2021/12/24 08:10:24;;;;;;;10.20;2.90;;;26.70;99.90;;;;;;5012971;28;20174;-72
2021/12/24 08:12:53;;;;;;;10.47;3.57;;;26.30;99.90;;;;;;5012973;28;20186;-72
2021/12/24 08:15:21;;;;;;;10.60;3.47;;;25.90;99.90;;;;;;5013011;28;20206;-72
2021/12/24 08:17:48;;;;;;;11.93;3.17;;;25.70;99.90;;;;;;5013181;28;20536;-72
2021/12/24 08:20:22;;;;;;;12.87;3.13;;;25.40;99.90;;;;;;5011659;28;20651;-71
2021/12/24 08:22:51;;;;;;;9.87;3.30;;;25.20;99.90;;;;;;5012912;28;20178;-71
2021/12/24 08:25:20;;;;;;;11.83;3.27;;;25.20;99.90;;;;;;5012778;28;20253;-71
2021/12/24 08:27:48;;;;;;;11.00;3.47;;;25.20;99.90;;;;;;5013070;28;20182;-71
2021/12/24 08:30:17;;;;;;;8.03;3.07;;;25.00;99.90;;;;;;5011321;28;20237;-71
2021/12/24 08:32:44;;;;;;;12.90;3.40;;;25.00;99.90;;;;;;5012827;28;20228;-72
2021/12/24 08:35:16;;;;;;;15.50;3.23;;;24.90;99.90;;;;;;5011576;28;20276;-72
2021/12/24 08:37:44;;;;;;;9.13;3.10;;;24.80;99.90;;;;;;5013006;28;20224;-71
2021/12/24 08:40:13;;;;;;;12.20;3.73;;;24.80;99.90;;;;;;5012969;28;20210;-72
2021/12/24 08:42:41;;;;;;;10.53;2.90;;;24.70;99.90;;;;;;5012760;28;20205;-71
2021/12/24 08:45:10;;;;;;;10.93;3.10;;;24.80;99.90;;;;;;5012739;28;20210;-72
2021/12/24 08:47:38;;;;;;;9.87;3.40;;;24.70;99.90;;;;;;5011589;28;20223;-71
2021/12/24 08:50:08;;;;;;;13.87;3.87;;;24.60;99.90;;;;;;4997642;28;20186;-71
2021/12/24 08:52:36;;;;;;;13.30;4.30;;;24.60;99.90;;;;;;5016499;28;20537;-72
2021/12/24 08:55:05;;;;;;;11.63;4.27;;;24.50;99.90;;;;;;5016274;28;20677;-72
2021/12/24 08:57:32;;;;;;;10.53;3.60;;;24.40;99.90;;;;;;5003979;28;20191;-69
2021/12/24 09:00:00;;;;;;;13.20;3.10;;;24.40;99.90;;;;;;5002792;28;20182;-69
2021/12/24 09:02:28;;;;;;;13.47;3.83;;;24.40;99.90;;;;;;5013430;28;20206;-71
2021/12/24 09:04:56;;;;;;;12.43;3.47;;;24.40;99.90;;;;;;4999939;28;20213;-70
2021/12/24 09:07:23;;;;;;;14.37;3.57;;;24.40;99.90;;;;;;4978920;28;20187;-70
2021/12/24 09:09:51;;;;;;;14.47;3.93;;;24.40;99.90;;;;;;4978935;28;20195;-69
2021/12/24 09:12:19;;;;;;;13.17;4.03;;;24.40;99.90;;;;;;4978743;28;20193;-70
2021/12/24 09:14:46;;;;;;;17.43;4.17;;;24.40;99.90;;;;;;5011946;28;20320;-69
2021/12/24 09:17:14;;;;;;;12.47;4.03;;;24.40;99.90;;;;;;5015730;28;20635;-71
2021/12/24 09:19:47;;;;;;;11.00;4.43;;;24.20;99.90;;;;;;5013598;28;20200;-69
2021/12/24 09:22:17;;;;;;;15.13;3.70;;;24.20;99.90;;;;;;5016008;28;20185;-70
2021/12/24 09:24:47;;;;;;;9.37;3.90;;;24.30;99.90;;;;;;4997116;28;20216;-72
2021/12/24 09:27:15;;;;;;;13.80;3.60;;;24.30;99.90;;;;;;4996231;28;20659;-71
2021/12/24 09:29:43;;;;;;;10.93;3.80;;;24.20;99.90;;;;;;4995796;28;20227;-70
2021/12/24 09:32:11;;;;;;;11.90;3.30;;;24.20;99.90;;;;;;4995919;28;20208;-70
2021/12/24 09:34:39;;;;;;;16.20;4.20;;;24.20;99.90;;;;;;4995999;28;20690;-71
2021/12/24 09:37:07;;;;;;;16.07;4.63;;;24.10;99.90;;;;;;4996054;28;20171;-71
2021/12/24 09:39:35;;;;;;;13.47;3.87;;;24.00;99.90;;;;;;5001715;28;20541;-71
2021/12/24 09:42:04;;;;;;;15.97;3.77;;;23.90;99.90;;;;;;5015341;28;20177;-70
2021/12/24 09:44:31;;;;;;;14.27;3.67;;;24.00;99.90;;;;;;4997654;28;20308;-72
2021/12/24 09:46:59;;;;;;;17.00;3.80;;;23.90;99.90;;;;;;5015315;28;20216;-71
2021/12/24 09:49:26;;;;;;;14.53;4.17;;;23.90;99.90;;;;;;5015128;28;20168;-70
2021/12/24 09:51:54;;;;;;;15.03;3.97;;;23.70;99.90;;;;;;5013339;28;20239;-71
2021/12/24 09:54:24;;;;;;;15.33;4.30;;;23.70;99.90;;;;;;5014847;28;20186;-70
2021/12/24 09:56:54;;;;;;;13.60;3.90;;;23.70;99.90;;;;;;5009146;28;20173;-71
2021/12/24 09:59:21;;;;;;;17.40;4.10;;;23.60;99.90;;;;;;5015126;28;20690;-70
2021/12/24 10:01:55;;;;;;;14.00;4.00;;;23.60;99.90;;;;;;5013538;28;20169;-70
2021/12/24 10:04:28;;;;;;;18.40;4.80;;;23.70;99.90;;;;;;4995342;28;20222;-71
2021/12/24 10:07:04;;;;;;;17.60;5.60;;;23.60;99.90;;;;;;4995387;28;20182;-71
2021/12/24 10:09:36;;;;;;;14.07;4.60;;;23.70;99.90;;;;;;4995328;28;20209;-71
2021/12/24 10:12:09;;;;;;;13.13;3.73;;;23.60;99.90;;;;;;4995286;28;20192;-72
2021/12/24 10:14:51;;;;;;;8.23;3.93;;;23.60;99.90;;;;;;5012768;28;20197;-69
2021/12/24 10:17:22;;;;;;;18.40;4.17;;;23.50;99.90;;;;;;4997120;28;20258;-70
2021/12/24 10:19:56;;;;;;;12.17;4.07;;;23.50;99.90;;;;;;5001208;28;20182;-70
2021/12/24 10:22:24;;;;;;;12.57;4.97;;;23.50;99.90;;;;;;4995159;28;20182;-72
2021/12/24 10:25:07;;;;;;;19.60;4.60;;;23.50;99.90;;;;;;4995298;28;20260;-69
2021/12/24 10:27:35;;;;;;;12.60;4.60;;;23.50;99.90;;;;;;5014438;28;20189;-72
2021/12/24 10:30:23;;;;;;;16.03;5.80;;;23.30;99.90;;;;;;5013862;28;20228;-71
2021/12/24 10:32:55;;;;;;;14.43;5.23;;;23.30;99.90;;;;;;5014469;28;20177;-71
2021/12/24 10:35:28;;;;;;;16.10;5.73;;;23.30;99.90;;;;;;5013391;28;20190;-70
2021/12/24 10:38:17;;;;;;;19.50;5.90;;;23.30;99.90;;;;;;5003383;28;20186;-70
2021/12/24 10:40:58;;;;;;;18.03;5.50;;;23.20;99.90;;;;;;4994914;28;20185;-72
2021/12/24 10:43:33;;;;;;;16.40;5.60;;;23.20;99.90;;;;;;4995621;28;20180;-70
2021/12/24 10:46:24;;;;;;;17.53;5.93;;;23.20;99.90;;;;;;5017528;28;20206;-69
2021/12/24 10:49:08;;;;;;;20.37;5.77;;;23.20;99.90;;;;;;4986058;28;20181;-70
2021/12/24 10:52:11;;;;;;;18.03;5.50;;;23.30;99.90;;;;;;5007095;28;20593;-70
2021/12/24 10:54:54;;;;;;;14.90;5.33;;;23.30;99.90;;;;;;5012530;28;20197;-70
2021/12/24 10:57:24;;;;;;;17.20;5.43;;;23.40;99.90;;;;;;5014093;28;20185;-72
2021/12/24 10:59:54;;;;;;;14.50;4.97;;;23.50;99.90;;;;;;5013873;28;20198;-71
2021/12/24 11:02:27;;;;;;;15.43;4.97;;;23.50;99.90;;;;;;4996116;28;20568;-71
2021/12/24 11:04:55;;;;;;;14.77;4.80;;;23.50;99.90;;;;;;5007370;28;20225;-71
2021/12/24 11:07:40;;;;;;;21.47;5.30;;;23.50;99.90;;;;;;5013841;28;20178;-71
2021/12/24 11:10:19;;;;;;;13.40;4.57;;;23.40;99.90;;;;;;5013628;28;20654;-70
2021/12/24 11:12:54;;;;;;;14.20;5.20;;;23.40;99.90;;;;;;5009893;28;20185;-70
2021/12/24 11:15:52;;;;;;;14.93;5.20;;;23.30;99.90;;;;;;4993957;28;20196;-69
2021/12/24 11:18:24;;;;;;;19.50;4.80;;;23.30;99.90;;;;;;4974502;28;20193;-71
2021/12/24 11:21:01;;;;;;;13.40;4.80;;;23.30;99.90;;;;;;4995294;28;20256;-69
2021/12/24 11:23:31;;;;;;;14.63;4.67;;;23.30;99.90;;;;;;4994057;28;20228;-69
2021/12/24 11:26:10;;;;;;;16.07;4.30;;;23.30;99.90;;;;;;4976577;28;20699;-71
2021/12/24 11:28:39;;;;;;;18.27;4.60;;;23.40;99.90;;;;;;4993986;28;20184;-71
2021/12/24 11:31:18;;;;;;;17.37;4.40;;;23.30;99.90;;;;;;4992616;28;20233;-71
2021/12/24 11:33:47;;;;;;;15.57;5.23;;;23.40;99.90;;;;;;5004288;28;20198;-71
2021/12/24 11:36:18;;;;;;;16.80;4.03;;;23.40;99.90;;;;;;5013730;28;20181;-70
2021/12/24 11:38:48;;;;;;;16.70;4.87;;;23.40;99.90;;;;;;5013562;28;20196;-72
2021/12/24 11:41:23;;;;;;;18.00;4.33;;;23.40;99.90;;;;;;5004577;28;20686;-70
2021/12/24 11:43:53;;;;;;;18.17;4.33;;;23.30;99.90;;;;;;5004395;28;20248;-69
2021/12/24 11:46:23;;;;;;;21.00;4.77;;;23.30;99.90;;;;;;5013677;28;20207;-69
2021/12/24 11:48:52;;;;;;;18.87;5.30;;;23.40;99.90;;;;;;5013454;28;20177;-71
2021/12/24 11:51:23;;;;;;;13.67;4.60;;;23.20;99.90;;;;;;5013307;28;20182;-71
2021/12/24 11:53:53;;;;;;;14.60;4.27;;;23.20;99.90;;;;;;4985034;28;20658;-71
2021/12/24 11:56:21;;;;;;;24.83;5.23;;;23.10;99.90;;;;;;4993935;28;20662;-70
2021/12/24 11:58:57;;;;;;;12.27;3.73;;;23.00;99.90;;;;;;4993589;28;20269;-70
2021/12/24 12:01:28;;;;;;;15.73;4.90;;;23.10;99.90;;;;;;4993570;28;20180;-71
2021/12/24 12:03:58;;;;;;;13.67;4.37;;;23.10;99.90;;;;;;5004503;28;20548;-71
2021/12/24 12:06:25;;;;;;;14.37;4.70;;;23.10;99.90;;;;;;5013146;28;20185;-71
2021/12/24 12:08:53;;;;;;;17.20;5.17;;;23.10;99.90;;;;;;5011989;28;20179;-71
2021/12/24 12:11:24;;;;;;;14.23;4.47;;;23.10;99.90;;;;;;5013268;28;20187;-71
2021/12/24 12:13:55;;;;;;;16.43;5.27;;;23.00;99.90;;;;;;5003239;28;20218;-72
2021/12/24 12:16:43;;;;;;;16.27;4.83;;;23.00;99.90;;;;;;4993545;28;20186;-70
2021/12/24 12:19:33;;;;;;;21.73;4.90;;;23.00;99.90;;;;;;4993813;28;20257;-69
2021/12/24 12:25:09;;;;;;;13.60;4.40;;;22.90;99.90;;;;;;4996197;28;20213;-70
2021/12/24 12:27:58;;;;;;;17.03;4.73;;;22.80;99.90;;;;;;4997174;28;20200;-69
2021/12/24 12:30:53;;;;;;;14.00;4.30;;;22.70;99.90;;;;;;4984724;28;20225;-71
2021/12/24 12:33:31;;;;;;;17.27;4.83;;;22.70;99.90;;;;;;5014727;28;20189;-71
2021/12/24 12:36:04;;;;;;;15.07;4.83;;;22.60;99.90;;;;;;5016624;28;20327;-69
2021/12/24 12:38:38;;;;;;;18.47;4.97;;;22.60;99.90;;;;;;5016830;28;20185;-70
2021/12/24 12:41:35;;;;;;;20.33;5.17;;;22.50;99.90;;;;;;5016648;28;20594;-72
2021/12/24 12:44:14;;;;;;;18.67;5.17;;;22.50;99.90;;;;;;5003629;28;20289;-70
2021/12/24 12:46:46;;;;;;;15.50;5.67;;;22.50;99.90;;;;;;4996764;28;20244;-72
2021/12/24 12:49:20;;;;;;;18.60;4.93;;;22.40;99.90;;;;;;4996968;28;20590;-72
2021/12/24 12:52:02;;;;;;;21.00;5.63;;;22.40;99.90;;;;;;5007889;28;20189;-71
2021/12/24 12:54:35;;;;;;;16.90;5.17;;;22.40;99.90;;;;;;5000575;28;20183;-72
2021/12/24 12:57:19;;;;;;;22.87;5.13;;;22.40;99.90;;;;;;4996799;28;20174;-70
2021/12/24 13:00:17;;;;;;;19.33;4.97;;;22.40;99.90;;;;;;4997093;28;20185;-70
2021/12/24 13:03:10;;;;;;;16.87;4.83;;;22.30;99.90;;;;;;4998998;28;20186;-71
2021/12/24 13:05:43;;;;;;;16.07;4.10;;;22.30;99.90;;;;;;5008154;28;20229;-69
2021/12/24 13:08:17;;;;;;;16.60;4.77;;;22.30;99.90;;;;;;5006790;28;20196;-70
2021/12/24 13:11:04;;;;;;;20.97;4.93;;;22.20;99.90;;;;;;5016003;28;20652;-71
2021/12/24 13:13:55;;;;;;;17.77;5.07;;;22.20;99.90;;;;;;5006494;28;20181;-72
2021/12/24 13:16:47;;;;;;;15.43;4.83;;;22.10;99.90;;;;;;5016027;28;20231;-71
2021/12/24 13:24:52;;;;;;;17.43;4.20;;;22.10;99.90;;;;;;5012046;28;20582;-71
2021/12/24 13:27:26;;;;;;;16.53;5.20;;;22.10;99.90;;;;;;5015658;28;20190;-72
2021/12/24 13:30:16;;;;;;;15.60;4.83;;;22.10;99.90;;;;;;5015580;28;20223;-71
2021/12/24 13:32:55;;;;;;;14.10;4.00;;;22.10;99.90;;;;;;5007160;28;20190;-71
2021/12/24 13:35:42;;;;;;;15.23;5.50;;;22.10;99.90;;;;;;5011519;28;20182;-71
2021/12/24 13:38:19;;;;;;;15.40;5.17;;;22.20;99.90;;;;;;5016028;28;20171;-71
2021/12/24 13:40:47;;;;;;;19.30;4.80;;;22.20;99.90;;;;;;5015823;28;20201;-71
2021/12/24 13:43:18;;;;;;;15.97;5.70;;;22.10;99.90;;;;;;5008477;28;20265;-71
2021/12/24 13:45:50;;;;;;;12.27;3.97;;;22.10;99.90;;;;;;4994643;28;20221;-71
2021/12/24 13:48:29;;;;;;;19.97;5.07;;;22.10;99.90;;;;;;5004348;28;20187;-72
2021/12/24 13:56:25;;;;;;;18.73;4.50;;;22.10;99.90;;;;;;5015391;28;20185;-71
2021/12/24 13:58:56;;;;;;;22.73;6.10;;;22.00;99.90;;;;;;5015422;28;20182;-71
2021/12/24 14:01:33;;;;;;;16.07;4.80;;;21.90;99.90;;;;;;5015252;28;20174;-70
2021/12/24 14:04:05;;;;;;;14.93;4.83;;;21.90;99.90;;;;;;4995810;28;20197;-71
2021/12/24 14:06:46;;;;;;;14.50;4.57;;;21.80;99.90;;;;;;4978091;28;20568;-71
2021/12/24 14:09:16;;;;;;;24.10;5.40;;;21.70;99.90;;;;;;4995619;28;20204;-71
2021/12/24 14:11:47;;;;;;;19.93;7.27;;;21.60;99.90;;;;;;4995289;28;20187;-71
2021/12/24 14:14:43;;;;;;;17.50;6.27;;;21.60;99.90;;;;;;4999261;28;20196;-71
2021/12/24 14:22:20;;;;;;;21.97;6.67;;;21.40;99.90;;;;;;4995119;28;20320;-70
2021/12/24 14:24:59;;;;;;;21.00;6.80;;;21.40;99.90;;;;;;5012914;28;20344;-71
2021/12/24 14:27:28;;;;;;;14.27;6.37;;;21.30;99.90;;;;;;4997234;28;20328;-72
2021/12/24 14:30:07;;;;;;;14.50;5.50;;;21.30;99.90;;;;;;5008409;28;20246;-71
2021/12/24 14:32:39;;;;;;;16.57;6.23;;;21.20;99.90;;;;;;5002638;28;20178;-71
2021/12/24 14:35:22;;;;;;;17.20;5.73;;;21.20;99.90;;;;;;5012611;28;20182;-70
2021/12/24 14:38:07;;;;;;;9.37;5.00;;;21.20;99.90;;;;;;5014531;28;20547;-72
2021/12/24 14:40:37;;;;;;;19.30;5.80;;;21.10;99.90;;;;;;5012005;28;20173;-69
2021/12/24 14:43:24;;;;;;;18.17;5.83;;;21.00;99.90;;;;;;5010060;28;20229;-69
2021/12/24 14:45:53;;;;;;;14.93;5.40;;;21.00;99.90;;;;;;4994743;28;20227;-69
2021/12/24 14:48:26;;;;;;;26.17;5.90;;;21.00;99.90;;;;;;4994155;28;20176;-68
2021/12/24 14:51:00;;;;;;;14.90;5.80;;;21.00;99.90;;;;;;4994636;28;20183;-70
2021/12/24 14:53:31;;;;;;;17.00;5.37;;;21.00;99.90;;;;;;4995977;28;20207;-71
2021/12/24 14:56:10;;;;;;;13.53;5.43;;;21.00;99.90;;;;;;5014374;28;20171;-71
2021/12/24 14:58:46;;;;;;;13.77;5.13;;;21.00;99.90;;;;;;5014173;28;20641;-68
2021/12/24 15:01:19;;;;;;;13.57;5.23;;;20.90;99.90;;;;;;5013729;28;20267;-69
2021/12/24 15:03:53;;;;;;;20.40;5.40;;;20.90;99.90;;;;;;5009829;28;20193;-70
2021/12/24 15:06:30;;;;;;;15.93;6.20;;;20.80;99.90;;;;;;4976859;28;20308;-70